Airfield :
LOGIN :

Register | Disclaimer

   EN    FR    IT 

 










Legend :    VFR   Marginal VFR   IFR   Intensive IFR   Very Intensive IFR
Visi :
Ceiling :
>= 8 km
>= 3000ft
5 to 8 km
1000 to 3000 ft
1500m to 5 km
500 to 1000 ft
800 to 1500m
200 to 500 ft
< 800m
< 200 ft
Symbols :   Thunderstorms  Fog  Heavy snow  Heavy precipitations  Wind > 20 kt
SIGMETs :     Misc.  Thunderstorms  Icing  Turbulence  Mountain Waves  Volcanic Ashes







- Airport Elevation : 277 ft
- IATA code : JER
- Download approach charts


EGJJ - Jersey

CURRENT METAR :
  • 270320Z AUTO 07020KT 7000 HZ OVC005/// 15/14 Q1022

EXPIRED METARs :
  • 270250Z AUTO 07022G34KT 8000 HZ OVC005/// 15/14 Q1021
  • 270220Z AUTO 07025G38KT 8000 HZ OVC005/// 15/14 Q1021
  • 270150Z AUTO 07023G35KT 9000 HZ OVC005/// 15/14 Q1021
  • 270120Z AUTO 07024G35KT 9999 FEW005/// 15/14 Q1021
  • 270050Z AUTO 07026G37KT 9999 NCD 15/14 Q1021

TAF TAF EGJJ
Valid from the 27 at 03:00 until the 27 at 12:00 UTC


270155Z 2703/2712 07022G34KT 9999 BKN005
TEMPO 2703/2708 8000 SCT005
BECMG 2708/2711 FEW005
ATIS : +44 1534 498 073
No reported NOTAMs for that airfield.
1 SIGMET reported for the Brest FIR (LFRR) :
 
Embedded thunderstorms
LFRR SIGMET 1 VALID 270230/270400 LFPW
LFRR BREST FIR/UIR EMBD TS OBS WI N4700 W00800 - N4900 W00800 - N4915 W00615 - N4430 W00600 - N4445 W00700 - N4700 W00800 TOP FL380 MOV N 20KT NC=



MET'MAP, your aeronautical weather chart ! - Copyright ORBIFLY December 2007 - Disclaimer

ORBIFLY MET'MAP TEAM :

Programming & Development : Alexandra Zaïnal
Concept & Development : Baudouin d'Aumeries
Co-Development & Prog : Marc-Olivier Méhu
Technical & hardware support : Manuel Goepfert

Contact : metmap@orbifly.com




SOURCES & CREDITS :

   NOAA